Time;durP1;ratioP1;P1;durP2;ratioP2;P2;SDS_P1;SDS_P2;PMS_P1;PMS_P2;Temp;Humidity;BMP_temperature;BMP_pressure;BME280_temperature;BME280_humidity;BME280_pressure;Samples;Min_cycle;Max_cycle;Signal;HPM_P1;HPM_P2
2022/01/02 00:01:45;;;;;;;;;29.00;26.50;;;;;;;;5075660;28;45234;-73
2022/01/02 00:04:14;;;;;;;;;36.25;27.75;;;;;;;;5075696;28;45454;-73
2022/01/02 00:06:44;;;;;;;;;29.25;26.75;;;;;;;;5059915;28;46056;-73
2022/01/02 00:09:12;;;;;;;;;28.50;25.50;;;;;;;;5073729;28;46063;-73
2022/01/02 00:11:39;;;;;;;;;27.50;25.25;;;;;;;;5074265;28;45540;-71
2022/01/02 00:14:07;;;;;;;;;27.50;25.75;;;;;;;;5073948;28;45318;-71
2022/01/02 00:16:33;;;;;;;;;22.75;22.25;;;;;;;;5075435;28;47027;-72
2022/01/02 00:19:08;;;;;;;;;26.25;22.50;;;;;;;;5057400;28;45305;-72
2022/01/02 00:21:40;;;;;;;;;25.25;22.50;;;;;;;;5075698;28;45181;-72
2022/01/02 00:24:10;;;;;;;;;22.75;19.50;;;;;;;;5073160;28;45377;-72
2022/01/02 00:26:40;;;;;;;;;31.75;27.75;;;;;;;;5073490;28;46400;-73
2022/01/02 00:29:07;;;;;;;;;24.50;23.50;;;;;;;;5074995;28;45542;-72
2022/01/02 00:31:33;;;;;;;;;26.75;23.25;;;;;;;;5075369;28;45446;-73
2022/01/02 00:34:00;;;;;;;;;25.25;22.75;;;;;;;;5075266;28;45462;-71
2022/01/02 00:36:25;;;;;;;;;26.50;25.00;;;;;;;;5075295;28;45341;-72
2022/01/02 00:38:50;;;;;;;;;22.75;20.25;;;;;;;;5076453;28;45389;-72
2022/01/02 00:41:20;;;;;;;;;24.00;23.00;;;;;;;;5074671;28;45522;-71
2022/01/02 00:43:47;;;;;;;;;26.75;25.25;;;;;;;;5075241;28;45347;-72
2022/01/02 00:46:13;;;;;;;;;23.00;22.00;;;;;;;;5075395;28;46778;-72
2022/01/02 00:48:39;;;;;;;;;19.75;18.25;;;;;;;;5057918;28;45247;-72
2022/01/02 00:51:09;;;;;;;;;24.00;22.50;;;;;;;;5077249;28;45529;-72
2022/01/02 00:53:35;;;;;;;;;24.25;22.75;;;;;;;;5073292;28;45655;-72
2022/01/02 00:56:01;;;;;;;;;21.75;19.25;;;;;;;;5074694;28;47264;-73
2022/01/02 00:58:30;;;;;;;;;18.00;18.00;;;;;;;;5074590;28;45305;-72
2022/01/02 01:00:59;;;;;;;;;20.50;20.50;;;;;;;;5074888;28;45418;-72
2022/01/02 01:03:30;;;;;;;;;27.00;21.75;;;;;;;;5073505;28;45784;-72
2022/01/02 01:05:57;;;;;;;;;21.50;19.25;;;;;;;;5076620;28;45579;-73
2022/01/02 01:08:26;;;;;;;;;21.00;18.00;;;;;;;;5074442;28;45498;-73
2022/01/02 01:10:51;;;;;;;;;22.00;19.25;;;;;;;;5074545;28;45454;-72
2022/01/02 01:13:17;;;;;;;;;23.25;20.25;;;;;;;;5074540;28;45490;-72
2022/01/02 01:15:42;;;;;;;;;20.00;20.00;;;;;;;;5074977;28;46621;-72
2022/01/02 01:18:08;;;;;;;;;23.25;18.75;;;;;;;;5076426;28;45375;-73
2022/01/02 01:20:37;;;;;;;;;21.00;17.50;;;;;;;;5074578;28;45433;-73
2022/01/02 01:23:02;;;;;;;;;22.75;19.50;;;;;;;;5074315;28;45487;-72
2022/01/02 01:25:28;;;;;;;;;20.00;16.50;;;;;;;;5074274;28;46308;-72
2022/01/02 01:27:53;;;;;;;;;20.25;19.25;;;;;;;;5073201;28;45316;-72
2022/01/02 01:30:19;;;;;;;;;18.00;17.50;;;;;;;;5075510;28;45317;-72
2022/01/02 01:32:45;;;;;;;;;22.75;18.00;;;;;;;;5074114;28;45471;-72
2022/01/02 01:35:11;;;;;;;;;21.00;21.00;;;;;;;;5074278;28;46496;-72
2022/01/02 01:37:36;;;;;;;;;22.75;21.25;;;;;;;;5073687;28;45243;-72
2022/01/02 01:40:03;;;;;;;;;17.75;16.50;;;;;;;;5074778;28;45366;-72
2022/01/02 01:42:36;;;;;;;;;21.00;20.50;;;;;;;;5074516;28;45405;-72
2022/01/02 01:45:47;;;;;;;;;21.50;21.00;;;;;;;;5076044;28;47202;-72
2022/01/02 01:47:49;;;;;;;;;19.00;19.00;;;;;;;;5061346;28;45233;-72
2022/01/02 01:50:15;;;;;;;;;20.75;18.75;;;;;;;;5055364;28;45382;-72
2022/01/02 01:52:41;;;;;;;;;23.75;22.50;;;;;;;;5073660;28;45388;-72
2022/01/02 01:55:06;;;;;;;;;23.25;20.00;;;;;;;;5074075;28;45802;-72
2022/01/02 01:57:32;;;;;;;;;19.50;19.50;;;;;;;;5074125;28;45398;-73
2022/01/02 01:59:57;;;;;;;;;22.75;22.75;;;;;;;;5076025;28;45289;-73
2022/01/02 02:02:22;;;;;;;;;20.50;17.75;;;;;;;;5074117;28;45484;-73
2022/01/02 02:04:48;;;;;;;;;20.50;19.50;;;;;;;;5074095;28;47113;-72
2022/01/02 02:07:14;;;;;;;;;18.75;17.75;;;;;;;;5072026;28;45461;-72
2022/01/02 02:12:23;;;;;;;;;19.25;18.00;;;;;;;;5073837;28;45386;-72
2022/01/02 02:14:48;;;;;;;;;16.00;15.00;;;;;;;;5075436;28;46280;-72
2022/01/02 02:17:13;;;;;;;;;24.00;21.00;;;;;;;;5073154;28;45510;-72
2022/01/02 02:19:39;;;;;;;;;19.75;19.50;;;;;;;;5073768;28;45352;-71
2022/01/02 02:22:06;;;;;;;;;22.00;20.75;;;;;;;;5073336;28;45351;-73
2022/01/02 02:24:31;;;;;;;;;18.25;15.00;;;;;;;;5073514;28;46612;-73
2022/01/02 02:26:56;;;;;;;;;18.00;14.00;;;;;;;;5075415;28;45276;-72
2022/01/02 02:29:22;;;;;;;;;18.50;16.75;;;;;;;;5073468;28;45466;-73
2022/01/02 02:31:47;;;;;;;;;22.50;20.00;;;;;;;;5055259;28;45313;-73
2022/01/02 02:34:12;;;;;;;;;17.75;17.50;;;;;;;;5073382;28;45276;-73
2022/01/02 02:36:38;;;;;;;;;18.50;16.75;;;;;;;;5073340;28;46057;-71
2022/01/02 02:39:03;;;;;;;;;19.50;19.50;;;;;;;;5075508;28;45297;-73
2022/01/02 02:41:32;;;;;;;;;22.00;19.00;;;;;;;;5073158;28;45517;-71
2022/01/02 02:44:08;;;;;;;;;16.00;16.00;;;;;;;;5073040;28;46527;-73
2022/01/02 02:49:17;;;;;;;;;14.25;14.25;;;;;;;;5071910;28;45427;-73
2022/01/02 02:54:28;;;;;;;;;19.25;18.50;;;;;;;;5072940;28;45774;-73
2022/01/02 02:57:00;;;;;;;;;18.25;16.50;;;;;;;;5075087;28;45343;-72
2022/01/02 02:59:27;;;;;;;;;18.00;15.75;;;;;;;;5073193;28;45551;-72
2022/01/02 03:01:53;;;;;;;;;19.00;15.75;;;;;;;;5072810;28;45386;-71
2022/01/02 03:04:19;;;;;;;;;16.75;15.50;;;;;;;;5072562;28;46396;-72
2022/01/02 03:06:44;;;;;;;;;16.75;15.75;;;;;;;;5073143;28;45484;-74
2022/01/02 03:09:10;;;;;;;;;19.25;15.25;;;;;;;;5056656;28;45848;-73
2022/01/02 03:11:36;;;;;;;;;17.50;15.50;;;;;;;;5073382;28;45422;-72
2022/01/02 03:14:02;;;;;;;;;19.25;16.00;;;;;;;;5072607;28;46364;-73
2022/01/02 03:16:28;;;;;;;;;19.50;14.50;;;;;;;;5072639;28;45939;-72
2022/01/02 03:18:54;;;;;;;;;19.00;17.50;;;;;;;;5072792;28;45510;-73
2022/01/02 03:21:20;;;;;;;;;17.00;16.50;;;;;;;;5073757;28;45465;-73
2022/01/02 03:23:45;;;;;;;;;18.25;16.25;;;;;;;;5074003;28;46283;-71
2022/01/02 03:26:10;;;;;;;;;19.25;16.50;;;;;;;;5071526;28;45375;-73
2022/01/02 03:28:36;;;;;;;;;18.75;16.75;;;;;;;;5074828;28;45472;-72
2022/01/02 03:31:01;;;;;;;;;16.25;14.50;;;;;;;;5056656;28;45235;-73
2022/01/02 03:33:27;;;;;;;;;17.50;16.25;;;;;;;;5075963;28;47116;-73
2022/01/02 03:35:52;;;;;;;;;15.75;14.75;;;;;;;;5078163;28;45408;-72
2022/01/02 03:38:17;;;;;;;;;16.50;15.25;;;;;;;;5075586;28;45324;-72
2022/01/02 03:40:42;;;;;;;;;13.25;13.00;;;;;;;;5075950;28;45669;-73
2022/01/02 03:43:08;;;;;;;;;14.00;14.00;;;;;;;;5076113;28;46243;-72
2022/01/02 03:45:33;;;;;;;;;16.50;15.25;;;;;;;;5075970;28;45359;-72
2022/01/02 03:47:58;;;;;;;;;16.75;15.75;;;;;;;;5077781;28;45466;-73
2022/01/02 03:50:23;;;;;;;;;6.75;6.25;;;;;;;;5075843;28;45474;-73
2022/01/02 03:52:49;;;;;;;;;18.25;15.75;;;;;;;;5057381;28;47969;-73
2022/01/02 03:55:14;;;;;;;;;14.50;14.25;;;;;;;;5075770;28;45545;-73
2022/01/02 03:57:39;;;;;;;;;11.50;11.50;;;;;;;;5076042;28;45465;-73
2022/01/02 04:00:09;;;;;;;;;19.25;17.00;;;;;;;;5077821;28;45278;-72
2022/01/02 04:02:38;;;;;;;;;19.00;16.75;;;;;;;;5073955;28;45399;-72
2022/01/02 04:05:06;;;;;;;;;18.00;16.75;;;;;;;;5074101;28;45584;-73
2022/01/02 04:07:32;;;;;;;;;15.75;15.75;;;;;;;;5074077;28;45500;-73
2022/01/02 04:10:01;;;;;;;;;15.75;14.00;;;;;;;;5075954;28;45251;-72
2022/01/02 04:12:26;;;;;;;;;18.75;15.50;;;;;;;;5076329;28;46392;-72
2022/01/02 04:14:51;;;;;;;;;22.25;16.00;;;;;;;;5077503;28;45342;-73
2022/01/02 04:17:16;;;;;;;;;13.75;13.00;;;;;;;;5075392;28;45328;-73
2022/01/02 04:19:42;;;;;;;;;14.25;13.75;;;;;;;;5075830;28;45264;-73
2022/01/02 04:22:07;;;;;;;;;18.00;15.50;;;;;;;;5075837;28;46696;-73
2022/01/02 04:24:32;;;;;;;;;15.50;15.50;;;;;;;;5075892;28;45347;-73
2022/01/02 04:26:57;;;;;;;;;15.25;14.50;;;;;;;;5077996;28;45330;-72
2022/01/02 04:29:22;;;;;;;;;16.00;14.00;;;;;;;;5075775;28;45358;-72
2022/01/02 04:31:48;;;;;;;;;16.75;15.75;;;;;;;;5077191;28;45278;-73
2022/01/02 04:34:13;;;;;;;;;17.50;17.00;;;;;;;;5058869;28;45477;-72
2022/01/02 04:36:38;;;;;;;;;16.00;16.00;;;;;;;;5091412;27;47711;-72
2022/01/02 04:39:04;;;;;;;;;12.50;11.50;;;;;;;;5076786;28;45403;-72
2022/01/02 04:41:29;;;;;;;;;16.75;14.75;;;;;;;;5076506;28;46266;-72
2022/01/02 04:43:54;;;;;;;;;15.00;15.00;;;;;;;;5074684;28;45521;-72
2022/01/02 04:46:19;;;;;;;;;13.00;13.00;;;;;;;;5074798;28;45476;-72
2022/01/02 04:48:44;;;;;;;;;14.00;12.00;;;;;;;;5075785;28;45444;-73
2022/01/02 04:51:10;;;;;;;;;14.50;14.00;;;;;;;;5077034;28;45399;-73
2022/01/02 04:53:37;;;;;;;;;15.25;14.25;;;;;;;;5075682;28;45525;-73
2022/01/02 04:56:03;;;;;;;;;13.50;13.00;;;;;;;;5075862;28;45833;-72
2022/01/02 04:58:28;;;;;;;;;15.25;15.25;;;;;;;;5075360;28;45485;-73
2022/01/02 05:00:53;;;;;;;;;13.75;10.75;;;;;;;;5075394;28;45995;-72
2022/01/02 05:03:19;;;;;;;;;13.75;12.50;;;;;;;;5076196;28;45618;-73
2022/01/02 05:05:44;;;;;;;;;12.25;12.25;;;;;;;;5076515;28;45384;-73
2022/01/02 05:08:09;;;;;;;;;12.75;11.75;;;;;;;;5074993;28;45433;-73
2022/01/02 05:10:34;;;;;;;;;13.00;12.50;;;;;;;;5075282;28;45504;-73
2022/01/02 05:13:00;;;;;;;;;13.50;12.50;;;;;;;;5075194;28;46676;-72
2022/01/02 05:15:25;;;;;;;;;16.50;15.00;;;;;;;;5075625;28;45562;-72
2022/01/02 05:17:50;;;;;;;;;12.00;10.75;;;;;;;;5076958;28;45443;-73
2022/01/02 05:20:15;;;;;;;;;15.75;12.50;;;;;;;;5074876;28;47344;-73
2022/01/02 05:22:40;;;;;;;;;15.00;12.75;;;;;;;;5073723;28;45526;-72
2022/01/02 05:25:06;;;;;;;;;12.00;9.00;;;;;;;;5073913;28;45261;-71
2022/01/02 05:27:31;;;;;;;;;10.25;10.25;;;;;;;;5075723;28;45324;-73
2022/01/02 05:29:56;;;;;;;;;13.75;13.75;;;;;;;;5076841;28;47598;-73
2022/01/02 05:32:22;;;;;;;;;13.00;13.00;;;;;;;;5075721;28;47040;-72
2022/01/02 05:34:47;;;;;;;;;13.00;11.00;;;;;;;;5075834;28;45577;-73
2022/01/02 05:37:12;;;;;;;;;14.00;12.50;;;;;;;;5057074;28;45410;-73
2022/01/02 05:39:37;;;;;;;;;14.00;11.50;;;;;;;;5076132;28;46939;-72
2022/01/02 05:42:03;;;;;;;;;9.75;9.75;;;;;;;;5077548;28;45375;-72
2022/01/02 05:44:28;;;;;;;;;13.50;13.00;;;;;;;;5074954;28;45407;-72
2022/01/02 05:46:53;;;;;;;;;12.25;11.00;;;;;;;;5075715;28;45561;-73
2022/01/02 05:49:19;;;;;;;;;6.00;6.00;;;;;;;;5075256;28;46164;-74
2022/01/02 05:51:44;;;;;;;;;13.75;10.50;;;;;;;;5074808;28;45466;-71
2022/01/02 05:54:10;;;;;;;;;10.25;9.75;;;;;;;;5077046;28;45478;-73
2022/01/02 05:56:35;;;;;;;;;10.75;10.00;;;;;;;;5074738;28;45304;-72
2022/01/02 05:59:00;;;;;;;;;10.75;10.75;;;;;;;;5073849;28;45528;-71
2022/01/02 06:01:25;;;;;;;;;13.25;10.75;;;;;;;;5072831;28;45366;-73
2022/01/02 06:03:51;;;;;;;;;14.25;14.25;;;;;;;;5054805;28;45384;-72
2022/01/02 06:06:16;;;;;;;;;8.75;8.75;;;;;;;;5075431;28;45241;-72
2022/01/02 06:08:41;;;;;;;;;10.00;10.00;;;;;;;;5074630;28;46279;-71
2022/01/02 06:11:07;;;;;;;;;11.00;10.25;;;;;;;;5073690;28;45431;-71
2022/01/02 06:13:32;;;;;;;;;14.00;11.75;;;;;;;;5073504;28;45320;-71
2022/01/02 06:15:57;;;;;;;;;13.25;12.00;;;;;;;;5074436;28;45421;-71
2022/01/02 06:18:22;;;;;;;;;12.75;10.25;;;;;;;;5073953;28;46864;-71
2022/01/02 06:20:48;;;;;;;;;9.75;9.75;;;;;;;;5075415;28;45359;-73
2022/01/02 06:23:13;;;;;;;;;11.00;11.00;;;;;;;;5073553;28;45512;-73
2022/01/02 06:25:38;;;;;;;;;10.50;8.50;;;;;;;;5073914;28;45377;-73
2022/01/02 06:28:04;;;;;;;;;12.75;11.75;;;;;;;;5073164;28;47309;-72
2022/01/02 06:30:29;;;;;;;;;10.75;10.75;;;;;;;;5073810;28;45296;-72
2022/01/02 06:32:55;;;;;;;;;12.00;9.25;;;;;;;;5075827;28;45363;-72
2022/01/02 06:35:28;;;;;;;;;13.00;9.25;;;;;;;;5073740;28;45495;-72
2022/01/02 06:37:53;;;;;;;;;11.00;8.00;;;;;;;;5073124;28;47241;-72
2022/01/02 06:40:19;;;;;;;;;11.25;10.75;;;;;;;;5071999;28;45287;-72
2022/01/02 06:42:44;;;;;;;;;7.00;7.00;;;;;;;;5071782;28;49174;-73
2022/01/02 06:45:09;;;;;;;;;8.25;7.25;;;;;;;;5075447;28;45518;-73
2022/01/02 06:47:35;;;;;;;;;9.00;9.00;;;;;;;;5073492;28;46089;-73
2022/01/02 06:50:00;;;;;;;;;9.75;9.50;;;;;;;;5073060;28;45300;-72
2022/01/02 06:52:25;;;;;;;;;10.75;7.75;;;;;;;;5071321;28;45783;-72
2022/01/02 06:54:53;;;;;;;;;8.25;8.00;;;;;;;;5073337;28;45353;-72
2022/01/02 06:57:18;;;;;;;;;14.25;11.00;;;;;;;;5073583;28;47033;-71
2022/01/02 06:59:44;;;;;;;;;9.00;7.75;;;;;;;;5074063;28;45432;-71
2022/01/02 07:02:09;;;;;;;;;10.50;9.75;;;;;;;;5071859;28;45444;-71
2022/01/02 07:04:34;;;;;;;;;11.00;10.00;;;;;;;;5073092;28;45423;-71
2022/01/02 07:06:59;;;;;;;;;8.50;8.00;;;;;;;;5073139;28;47214;-73
2022/01/02 07:09:24;;;;;;;;;14.75;12.25;;;;;;;;5054619;28;45797;-73
2022/01/02 07:11:50;;;;;;;;;8.50;8.50;;;;;;;;5056369;28;45281;-73
2022/01/02 07:14:15;;;;;;;;;8.25;8.00;;;;;;;;5072619;28;45481;-72
2022/01/02 07:16:40;;;;;;;;;1.75;1.75;;;;;;;;5072073;28;46128;-72
2022/01/02 07:19:05;;;;;;;;;9.75;8.00;;;;;;;;5053118;28;45436;-72
2022/01/02 07:21:30;;;;;;;;;9.75;8.75;;;;;;;;5072226;28;45645;-72
2022/01/02 07:23:56;;;;;;;;;11.50;11.00;;;;;;;;5073009;28;45464;-72
2022/01/02 07:26:22;;;;;;;;;8.00;8.00;;;;;;;;5072079;28;46157;-72
2022/01/02 07:28:47;;;;;;;;;8.25;7.75;;;;;;;;5072311;28;45470;-72
2022/01/02 07:31:12;;;;;;;;;13.50;10.75;;;;;;;;5072969;28;45348;-72
2022/01/02 07:33:37;;;;;;;;;11.75;10.00;;;;;;;;5072664;28;45529;-73
2022/01/02 07:36:02;;;;;;;;;11.75;10.75;;;;;;;;5074459;28;46181;-72
2022/01/02 07:38:28;;;;;;;;;7.75;7.25;;;;;;;;5072767;28;45335;-72
2022/01/02 07:40:53;;;;;;;;;12.25;11.00;;;;;;;;5071636;28;45557;-72
2022/01/02 07:43:18;;;;;;;;;10.25;8.25;;;;;;;;5072843;28;45359;-72
2022/01/02 07:45:43;;;;;;;;;12.50;9.25;;;;;;;;5072573;28;46326;-71
2022/01/02 07:48:09;;;;;;;;;9.75;8.75;;;;;;;;5074384;28;45174;-72
2022/01/02 07:50:34;;;;;;;;;6.00;6.00;;;;;;;;5072432;28;45263;-72
2022/01/02 07:52:59;;;;;;;;;10.50;10.50;;;;;;;;5072491;28;45416;-72
2022/01/02 07:55:24;;;;;;;;;10.25;10.25;;;;;;;;5071738;28;46206;-72
2022/01/02 07:57:49;;;;;;;;;13.50;9.50;;;;;;;;5070878;28;45467;-74
2022/01/02 08:00:15;;;;;;;;;10.00;10.00;;;;;;;;5073613;28;45271;-71
2022/01/02 08:02:41;;;;;;;;;11.25;10.50;;;;;;;;5071483;28;46875;-72
2022/01/02 08:05:10;;;;;;;;;14.00;11.25;;;;;;;;5072151;28;46644;-73
2022/01/02 08:07:39;;;;;;;;;13.25;12.25;;;;;;;;5071844;28;45437;-74
2022/01/02 08:10:04;;;;;;;;;9.00;9.00;;;;;;;;5068989;27;45538;-74
2022/01/02 08:12:29;;;;;;;;;13.25;11.00;;;;;;;;5071534;28;46006;-75
2022/01/02 08:14:55;;;;;;;;;10.75;10.75;;;;;;;;5077327;28;45698;-76
2022/01/02 08:17:20;;;;;;;;;11.25;11.25;;;;;;;;5075465;28;45318;-75
2022/01/02 08:19:45;;;;;;;;;9.50;9.50;;;;;;;;5075412;28;45450;-73
2022/01/02 08:22:10;;;;;;;;;11.25;11.25;;;;;;;;5075340;28;45343;-72
2022/01/02 08:24:35;;;;;;;;;15.75;10.25;;;;;;;;5074913;28;47904;-73
2022/01/02 08:27:01;;;;;;;;;8.75;8.25;;;;;;;;5077219;28;45404;-75
2022/01/02 08:29:26;;;;;;;;;13.25;12.00;;;;;;;;5075070;28;45582;-74
2022/01/02 08:31:51;;;;;;;;;11.50;8.50;;;;;;;;5056831;28;45390;-74
2022/01/02 08:34:16;;;;;;;;;10.50;8.50;;;;;;;;5075012;28;46038;-73
2022/01/02 08:36:41;;;;;;;;;12.75;12.00;;;;;;;;5073793;28;45572;-74
2022/01/02 08:39:07;;;;;;;;;10.00;8.00;;;;;;;;5076478;28;45616;-74
2022/01/02 08:41:32;;;;;;;;;12.25;12.25;;;;;;;;5072934;28;45676;-75
2022/01/02 08:43:57;;;;;;;;;11.50;10.50;;;;;;;;5074345;28;47018;-73
2022/01/02 08:46:22;;;;;;;;;7.25;7.25;;;;;;;;5074684;28;45579;-74
2022/01/02 08:48:48;;;;;;;;;8.50;8.50;;;;;;;;5074961;28;45561;-74
2022/01/02 08:51:13;;;;;;;;;10.50;9.50;;;;;;;;5076129;28;45451;-73
2022/01/02 08:53:39;;;;;;;;;13.50;12.00;;;;;;;;5074820;28;47155;-74
2022/01/02 08:56:04;;;;;;;;;9.50;8.00;;;;;;;;5074234;28;45528;-75
2022/01/02 08:58:30;;;;;;;;;10.00;10.00;;;;;;;;5089878;27;45565;-74
2022/01/02 09:00:57;;;;;;;;;10.75;10.75;;;;;;;;5074537;28;45495;-74
2022/01/02 09:03:22;;;;;;;;;8.00;8.00;;;;;;;;5074841;28;46377;-74
2022/01/02 09:05:47;;;;;;;;;9.25;8.50;;;;;;;;5075788;28;45487;-73
2022/01/02 09:08:12;;;;;;;;;9.50;8.75;;;;;;;;5073840;28;45574;-74
2022/01/02 09:10:38;;;;;;;;;8.25;7.00;;;;;;;;5074236;28;45478;-75
2022/01/02 09:13:03;;;;;;;;;11.25;11.25;;;;;;;;5074093;28;47188;-74
2022/01/02 09:15:28;;;;;;;;;10.50;9.50;;;;;;;;5074811;28;45299;-75
2022/01/02 09:17:54;;;;;;;;;12.00;12.00;;;;;;;;5074832;28;45333;-74
2022/01/02 09:20:21;;;;;;;;;8.25;8.25;;;;;;;;5072775;28;45455;-73
2022/01/02 09:22:47;;;;;;;;;15.00;12.25;;;;;;;;5073593;28;45467;-75
2022/01/02 09:25:12;;;;;;;;;10.25;9.75;;;;;;;;5073336;28;45419;-73
2022/01/02 09:27:37;;;;;;;;;4.75;4.75;;;;;;;;5074413;28;45408;-75
2022/01/02 09:30:04;;;;;;;;;10.25;10.25;;;;;;;;5076099;28;45509;-74
2022/01/02 09:32:29;;;;;;;;;8.00;8.00;;;;;;;;5073642;28;46487;-75
2022/01/02 09:34:54;;;;;;;;;10.75;10.25;;;;;;;;5074027;28;45264;-75
2022/01/02 09:37:19;;;;;;;;;10.50;9.75;;;;;;;;5074004;28;45352;-75
2022/01/02 09:39:45;;;;;;;;;12.50;9.00;;;;;;;;5074582;28;45353;-75
2022/01/02 09:42:11;;;;;;;;;8.00;8.00;;;;;;;;5075899;28;47357;-74
2022/01/02 09:44:36;;;;;;;;;10.75;9.25;;;;;;;;5074038;28;45496;-75
2022/01/02 09:47:01;;;;;;;;;7.75;7.75;;;;;;;;5073608;28;45342;-75
2022/01/02 09:49:27;;;;;;;;;8.75;8.75;;;;;;;;5074021;28;45366;-74
2022/01/02 09:51:52;;;;;;;;;7.25;7.25;;;;;;;;5073432;28;45438;-74
2022/01/02 09:54:17;;;;;;;;;9.25;8.25;;;;;;;;5074942;28;45320;-74
2022/01/02 09:56:42;;;;;;;;;9.75;9.75;;;;;;;;5073562;28;45362;-74
2022/01/02 09:59:08;;;;;;;;;9.75;9.00;;;;;;;;5072294;28;45596;-74
2022/01/02 10:01:33;;;;;;;;;10.75;9.25;;;;;;;;5073418;28;46371;-74
2022/01/02 10:03:59;;;;;;;;;8.25;8.25;;;;;;;;5073523;28;45387;-76
2022/01/02 10:06:51;;;;;;;;;9.75;8.00;;;;;;;;5073929;28;45857;-75
2022/01/02 10:09:30;;;;;;;;;12.00;8.00;;;;;;;;5068099;28;45484;-75
2022/01/02 10:12:15;;;;;;;;;8.50;7.50;;;;;;;;5075323;28;46904;-75
2022/01/02 10:14:40;;;;;;;;;8.25;8.25;;;;;;;;5072254;28;46030;-76
2022/01/02 10:17:05;;;;;;;;;9.75;9.00;;;;;;;;5073200;28;45609;-75
2022/01/02 10:19:35;;;;;;;;;5.25;4.25;;;;;;;;5073122;28;45518;-75
2022/01/02 10:22:02;;;;;;;;;9.25;9.25;;;;;;;;5073382;28;46255;-76
2022/01/02 10:24:31;;;;;;;;;8.00;5.75;;;;;;;;5073276;28;45582;-75
2022/01/02 10:27:03;;;;;;;;;10.75;8.75;;;;;;;;5075195;28;45330;-74
2022/01/02 10:29:37;;;;;;;;;6.25;6.25;;;;;;;;5073214;28;45395;-75
2022/01/02 10:32:21;;;;;;;;;3.75;3.75;;;;;;;;5072747;28;46474;-74
2022/01/02 10:34:46;;;;;;;;;8.75;7.00;;;;;;;;5070966;28;45529;-78
2022/01/02 10:37:21;;;;;;;;;6.75;6.25;;;;;;;;5070233;28;45299;-74
2022/01/02 10:39:46;;;;;;;;;7.25;6.00;;;;;;;;5057873;28;45265;-76
2022/01/02 10:42:16;;;;;;;;;9.00;8.00;;;;;;;;5074142;28;46668;-75
2022/01/02 10:44:41;;;;;;;;;7.50;6.75;;;;;;;;5072194;28;45370;-75
2022/01/02 10:47:15;;;;;;;;;4.75;3.75;;;;;;;;5072211;28;45581;-73
2022/01/02 10:49:59;;;;;;;;;6.00;4.50;;;;;;;;5072382;28;45417;-75
2022/01/02 10:52:26;;;;;;;;;5.25;4.75;;;;;;;;5072461;28;45456;-75
2022/01/02 10:54:51;;;;;;;;;5.00;2.25;;;;;;;;5072837;28;45407;-74
2022/01/02 10:57:17;;;;;;;;;7.00;5.00;;;;;;;;5074376;28;45395;-75
2022/01/02 10:59:43;;;;;;;;;7.50;4.50;;;;;;;;5073674;28;45417;-75
2022/01/02 11:02:10;;;;;;;;;4.00;3.00;;;;;;;;5072411;28;46750;-76
2022/01/02 11:04:36;;;;;;;;;5.25;4.25;;;;;;;;5072141;28;45474;-75
2022/01/02 11:07:02;;;;;;;;;2.75;2.75;;;;;;;;5072568;28;45391;-75
2022/01/02 11:09:28;;;;;;;;;2.00;2.00;;;;;;;;5072103;28;45348;-72
2022/01/02 11:11:53;;;;;;;;;4.00;3.50;;;;;;;;5065260;27;46600;-74
2022/01/02 11:14:19;;;;;;;;;4.75;2.75;;;;;;;;5071803;28;45480;-74
2022/01/02 11:16:45;;;;;;;;;3.25;3.25;;;;;;;;5069764;28;45482;-74
2022/01/02 11:19:11;;;;;;;;;1.50;1.50;;;;;;;;5071949;28;45474;-73
2022/01/02 11:21:40;;;;;;;;;3.25;2.25;;;;;;;;5072044;28;46295;-74
2022/01/02 11:24:12;;;;;;;;;4.25;3.25;;;;;;;;5074204;28;45550;-74
2022/01/02 11:26:46;;;;;;;;;3.50;2.25;;;;;;;;5072145;28;45565;-72
2022/01/02 11:29:11;;;;;;;;;2.00;2.00;;;;;;;;5071018;28;45388;-71
2022/01/02 11:31:38;;;;;;;;;4.00;2.00;;;;;;;;5072421;28;46199;-73
2022/01/02 11:34:32;;;;;;;;;3.00;2.25;;;;;;;;5073531;28;45516;-72
2022/01/02 11:37:12;;;;;;;;;1.50;1.50;;;;;;;;5042053;28;45619;-73
2022/01/02 11:39:49;;;;;;;;;4.75;3.50;;;;;;;;5071177;28;45519;-74
2022/01/02 11:42:33;;;;;;;;;3.00;2.00;;;;;;;;5069371;28;46474;-74
2022/01/02 11:44:59;;;;;;;;;5.50;2.00;;;;;;;;5073497;27;45411;-75
2022/01/02 11:47:46;;;;;;;;;1.50;1.50;;;;;;;;5069913;28;45264;-74
2022/01/02 11:50:26;;;;;;;;;3.00;1.50;;;;;;;;5075258;28;45435;-75
2022/01/02 11:53:09;;;;;;;;;2.50;2.50;;;;;;;;5073689;28;46483;-76
2022/01/02 11:55:34;;;;;;;;;4.75;3.75;;;;;;;;5073692;28;45244;-78
2022/01/02 11:58:00;;;;;;;;;3.50;2.50;;;;;;;;5073356;28;45293;-78
2022/01/02 12:00:32;;;;;;;;;3.25;2.25;;;;;;;;5075046;28;45327;-77
2022/01/02 12:02:57;;;;;;;;;3.25;2.25;;;;;;;;5075454;28;46615;-79
2022/01/02 12:05:22;;;;;;;;;4.75;3.50;;;;;;;;5074865;28;45519;-77
2022/01/02 12:07:54;;;;;;;;;3.75;2.75;;;;;;;;5074527;28;45474;-75
2022/01/02 12:10:24;;;;;;;;;6.00;4.25;;;;;;;;5075085;28;45408;-75
2022/01/02 12:12:55;;;;;;;;;4.50;2.75;;;;;;;;5074441;28;47464;-76
2022/01/02 12:15:21;;;;;;;;;7.25;3.75;;;;;;;;5075240;28;45344;-75
2022/01/02 12:18:06;;;;;;;;;7.00;3.50;;;;;;;;5074772;28;45278;-75
2022/01/02 12:20:49;;;;;;;;;3.00;3.00;;;;;;;;5074891;28;45284;-76
2022/01/02 12:23:40;;;;;;;;;7.75;4.50;;;;;;;;5074638;28;45519;-74
2022/01/02 12:26:25;;;;;;;;;3.00;2.00;;;;;;;;5074174;28;45442;-75
2022/01/02 12:28:56;;;;;;;;;4.00;4.00;;;;;;;;5074555;28;45537;-74
2022/01/02 12:31:23;;;;;;;;;3.50;3.50;;;;;;;;5074227;28;45480;-75
2022/01/02 12:33:48;;;;;;;;;6.25;4.25;;;;;;;;5073778;28;45487;-75
2022/01/02 12:36:13;;;;;;;;;4.25;4.25;;;;;;;;5081466;28;45336;-73
2022/01/02 12:38:46;;;;;;;;;6.00;4.50;;;;;;;;5075201;28;45266;-75
2022/01/02 12:41:12;;;;;;;;;9.00;5.50;;;;;;;;5076033;28;45403;-72
2022/01/02 12:43:39;;;;;;;;;4.00;4.00;;;;;;;;5072957;28;45526;-73
2022/01/02 12:46:04;;;;;;;;;4.75;3.75;;;;;;;;5073902;28;45441;-74
2022/01/02 12:48:32;;;;;;;;;5.25;5.00;;;;;;;;5074501;28;45596;-73
2022/01/02 12:51:07;;;;;;;;;5.00;4.00;;;;;;;;5076932;28;45541;-74
2022/01/02 12:53:32;;;;;;;;;5.75;5.75;;;;;;;;5074049;28;47193;-73
2022/01/02 12:55:57;;;;;;;;;2.00;2.00;;;;;;;;5073989;28;45447;-73
2022/01/02 12:58:23;;;;;;;;;6.00;4.00;;;;;;;;5073867;28;45420;-75
2022/01/02 13:00:49;;;;;;;;;4.75;4.75;;;;;;;;5073491;28;45256;-72
2022/01/02 13:03:16;;;;;;;;;3.50;3.00;;;;;;;;5076364;28;45362;-74
2022/01/02 13:05:51;;;;;;;;;7.25;6.25;;;;;;;;5073367;28;45288;-74
2022/01/02 13:08:22;;;;;;;;;5.75;5.50;;;;;;;;5074303;28;45335;-74
2022/01/02 13:10:47;;;;;;;;;4.50;3.50;;;;;;;;5072937;28;45438;-73
2022/01/02 13:13:25;;;;;;;;;4.75;3.00;;;;;;;;5072281;28;46111;-74
2022/01/02 13:15:50;;;;;;;;;5.00;5.00;;;;;;;;5059972;28;45466;-74
2022/01/02 13:18:16;;;;;;;;;4.25;3.50;;;;;;;;5075838;28;45264;-75
2022/01/02 13:20:43;;;;;;;;;4.75;4.50;;;;;;;;5075171;28;45803;-73
2022/01/02 13:23:08;;;;;;;;;4.50;3.00;;;;;;;;5074219;28;46332;-74
2022/01/02 13:25:38;;;;;;;;;5.75;3.50;;;;;;;;5073575;28;45394;-73
2022/01/02 13:28:03;;;;;;;;;5.25;4.25;;;;;;;;5073928;28;45373;-74
2022/01/02 13:30:31;;;;;;;;;8.00;3.00;;;;;;;;5073831;28;45224;-73
2022/01/02 13:33:01;;;;;;;;;3.00;3.00;;;;;;;;5075583;28;46949;-73
2022/01/02 13:35:26;;;;;;;;;6.25;4.00;;;;;;;;5072941;28;45423;-74
2022/01/02 13:37:56;;;;;;;;;3.00;3.00;;;;;;;;5073483;28;45327;-73
2022/01/02 13:40:21;;;;;;;;;3.00;3.00;;;;;;;;5073777;28;45566;-72
2022/01/02 13:42:48;;;;;;;;;4.25;3.00;;;;;;;;5073184;28;47248;-73
2022/01/02 13:45:30;;;;;;;;;5.50;4.50;;;;;;;;5074956;28;45320;-73
2022/01/02 13:47:55;;;;;;;;;3.00;3.00;;;;;;;;5073807;28;45217;-73
2022/01/02 13:50:35;;;;;;;;;5.00;5.00;;;;;;;;5073213;28;45425;-74
2022/01/02 13:53:12;;;;;;;;;4.00;2.00;;;;;;;;5072119;28;45614;-73
2022/01/02 13:55:37;;;;;;;;;4.50;4.50;;;;;;;;5073320;28;45540;-74
2022/01/02 13:58:14;;;;;;;;;3.25;2.00;;;;;;;;5073552;28;45377;-74
2022/01/02 14:00:43;;;;;;;;;2.75;2.00;;;;;;;;5073554;28;45439;-74
2022/01/02 14:03:23;;;;;;;;;1.50;1.50;;;;;;;;5070953;28;47017;-73
2022/01/02 14:05:48;;;;;;;;;4.00;2.00;;;;;;;;5074098;28;45454;-74
2022/01/02 14:08:15;;;;;;;;;2.75;1.75;;;;;;;;5072749;28;45266;-73
2022/01/02 14:10:40;;;;;;;;;2.00;1.50;;;;;;;;5072461;28;45412;-73
2022/01/02 14:13:11;;;;;;;;;0.50;0.50;;;;;;;;5072455;28;47315;-73
2022/01/02 14:15:37;;;;;;;;;1.50;1.50;;;;;;;;5072573;28;45423;-73
2022/01/02 14:18:02;;;;;;;;;4.00;2.75;;;;;;;;5075027;28;45575;-73
2022/01/02 14:20:29;;;;;;;;;2.00;1.00;;;;;;;;5073038;28;45476;-74
2022/01/02 14:22:54;;;;;;;;;0.50;0.50;;;;;;;;5072947;28;45625;-73
2022/01/02 14:25:20;;;;;;;;;1.25;1.25;;;;;;;;5072483;28;45265;-73
2022/01/02 14:27:47;;;;;;;;;2.25;2.00;;;;;;;;5053567;28;45744;-73
2022/01/02 14:30:13;;;;;;;;;1.75;1.75;;;;;;;;5074624;28;45390;-73
2022/01/02 14:32:38;;;;;;;;;4.25;2.50;;;;;;;;5071641;28;46029;-73
2022/01/02 14:35:05;;;;;;;;;3.50;3.00;;;;;;;;5071952;28;45394;-73
2022/01/02 14:37:31;;;;;;;;;3.00;3.00;;;;;;;;5072594;28;45713;-73